TRA172 DTTA-LIPZ
Flight info
| Callsign | TRA172 |
|---|---|
| Flight time | 1h 27m |
| Altitude | 36000 |
| Route | TOBIB2A TOBIB UA725 OSMAR DCT TIVUK DCT ALEDI DCT APSUX DCT KUGIX DCT SUKOM Q125 NIMUM Z43 OTGIG |
| Aircraft | A321/M-SDE3FGHIRWY/LB1 |
Departure
| Time | 2026-05-06 17:46 |
|---|---|
| Airport | Tunis Carthage International Airport (DTTA) |
Arrival
| Time | 2026-05-06 19:14 |
|---|---|
| Airport | Venice Marco Polo Airport (LIPZ) |
| Time | Latitude | Longitude | Altitude | Speed | Heading |
|---|---|---|---|---|---|
| 2026-05-06 17:20 | 36.84644 | 10.22001 | 30 ft | 0 kts | 247° |
| 2026-05-06 17:27 | 36.84648 | 10.22011 | 31 ft | 4 kts | 247° |
| 2026-05-06 17:28 | 36.84659 | 10.22043 | 28 ft | 4 kts | 246° |
| 2026-05-06 17:28 | 36.84670 | 10.22074 | 29 ft | 4 kts | 244° |
| 2026-05-06 17:28 | 36.84679 | 10.22096 | 30 ft | 2 kts | 229° |
| 2026-05-06 17:28 | 36.84687 | 10.22105 | 27 ft | 2 kts | 187° |
| 2026-05-06 17:29 | 36.84698 | 10.22104 | 29 ft | 2 kts | 155° |
| 2026-05-06 17:29 | 36.84702 | 10.22102 | 29 ft | 0 kts | 157° |
| 2026-05-06 17:30 | 36.84701 | 10.22102 | 29 ft | 1 kts | 157° |
| 2026-05-06 17:30 | 36.84596 | 10.22091 | 30 ft | 15 kts | 194° |
| 2026-05-06 17:30 | 36.84490 | 10.22067 | 30 ft | 16 kts | 196° |
| 2026-05-06 17:30 | 36.84398 | 10.21991 | 30 ft | 16 kts | 218° |
| 2026-05-06 17:31 | 36.84294 | 10.21945 | 30 ft | 16 kts | 190° |
| 2026-05-06 17:31 | 36.84182 | 10.21914 | 30 ft | 17 kts | 192° |
| 2026-05-06 17:31 | 36.84068 | 10.21884 | 30 ft | 17 kts | 191° |
| 2026-05-06 17:31 | 36.83950 | 10.21856 | 30 ft | 17 kts | 177° |
| 2026-05-06 17:32 | 36.83892 | 10.21954 | 30 ft | 0 kts | 103° |
| 2026-05-06 17:36 | 36.83896 | 10.21960 | 30 ft | 3 kts | 63° |
| 2026-05-06 17:37 | 36.83957 | 10.21980 | 30 ft | 12 kts | 5° |
| 2026-05-06 17:37 | 36.83976 | 10.21982 | 30 ft | 0 kts | 5° |
| 2026-05-06 17:42 | 36.83984 | 10.21980 | 30 ft | 7 kts | 348° |
| 2026-05-06 17:42 | 36.83984 | 10.21886 | 30 ft | 14 kts | 222° |
| 2026-05-06 17:42 | 36.83909 | 10.21912 | 30 ft | 12 kts | 122° |
| 2026-05-06 17:42 | 36.83885 | 10.22006 | 30 ft | 11 kts | 101° |
| 2026-05-06 17:43 | 36.83871 | 10.22095 | 30 ft | 10 kts | 99° |
| 2026-05-06 17:43 | 36.83869 | 10.22177 | 30 ft | 9 kts | 85° |
| 2026-05-06 17:43 | 36.83884 | 10.22245 | 31 ft | 7 kts | 68° |
| 2026-05-06 17:43 | 36.83906 | 10.22293 | 31 ft | 6 kts | 54° |
| 2026-05-06 17:44 | 36.83929 | 10.22326 | 31 ft | 4 kts | 46° |
| 2026-05-06 17:44 | 36.83949 | 10.22348 | 30 ft | 3 kts | 39° |
| 2026-05-06 17:44 | 36.83989 | 10.22382 | 31 ft | 11 kts | 29° |
| 2026-05-06 17:44 | 36.84057 | 10.22413 | 32 ft | 10 kts | 12° |
| 2026-05-06 17:45 | 36.84064 | 10.22415 | 32 ft | 0 kts | 12° |
| 2026-05-06 17:45 | 36.84136 | 10.22435 | 32 ft | 44 kts | 12° |
| 2026-05-06 17:46 | 36.84750 | 10.22601 | 32 ft | 131 kts | 12° |
| 2026-05-06 17:46 | 36.85844 | 10.22910 | 264 ft | 176 kts | 13° |
| 2026-05-06 17:46 | 36.87093 | 10.23329 | 889 ft | 198 kts | 15° |
| 2026-05-06 17:46 | 36.88517 | 10.23754 | 1523 ft | 217 kts | 2° |
| 2026-05-06 17:47 | 36.89988 | 10.23404 | 2516 ft | 216 kts | 339° |
| 2026-05-06 17:47 | 36.91340 | 10.22683 | 2853 ft | 218 kts | 335° |
| 2026-05-06 17:47 | 36.92795 | 10.21852 | 3141 ft | 242 kts | 335° |
| 2026-05-06 17:47 | 36.94391 | 10.20939 | 3610 ft | 259 kts | 335° |
| 2026-05-06 17:48 | 36.96053 | 10.19998 | 4388 ft | 264 kts | 337° |
| 2026-05-06 17:48 | 36.97810 | 10.19253 | 5199 ft | 268 kts | 344° |
| 2026-05-06 17:48 | 36.99629 | 10.18670 | 6010 ft | 271 kts | 346° |
| 2026-05-06 17:48 | 37.01479 | 10.18138 | 6819 ft | 275 kts | 347° |
| 2026-05-06 17:49 | 37.03357 | 10.17604 | 7615 ft | 278 kts | 347° |
| 2026-05-06 17:49 | 37.05250 | 10.17051 | 8373 ft | 281 kts | 346° |
| 2026-05-06 17:49 | 37.07162 | 10.16472 | 9114 ft | 284 kts | 346° |
| 2026-05-06 17:49 | 37.09095 | 10.15874 | 9840 ft | 287 kts | 346° |
| 2026-05-06 17:50 | 37.11063 | 10.15256 | 10352 ft | 300 kts | 345° |
| 2026-05-06 17:50 | 37.13164 | 10.14588 | 10526 ft | 323 kts | 345° |
| 2026-05-06 17:50 | 37.15397 | 10.13877 | 10891 ft | 337 kts | 345° |
| 2026-05-06 17:50 | 37.17689 | 10.13144 | 11539 ft | 342 kts | 345° |
| 2026-05-06 17:51 | 37.20008 | 10.12400 | 12211 ft | 346 kts | 345° |
| 2026-05-06 17:51 | 37.22350 | 10.11650 | 12876 ft | 349 kts | 345° |
| 2026-05-06 17:51 | 37.24714 | 10.10893 | 13534 ft | 352 kts | 345° |
| 2026-05-06 17:51 | 37.27104 | 10.10129 | 14170 ft | 356 kts | 345° |
| 2026-05-06 17:52 | 37.29513 | 10.09359 | 14792 ft | 359 kts | 345° |
| 2026-05-06 17:52 | 37.31944 | 10.08580 | 15397 ft | 362 kts | 345° |
| 2026-05-06 17:52 | 37.34400 | 10.07792 | 16001 ft | 366 kts | 345° |
| 2026-05-06 17:52 | 37.36878 | 10.06997 | 16579 ft | 369 kts | 345° |
| 2026-05-06 17:53 | 37.39374 | 10.06197 | 17155 ft | 372 kts | 345° |
| 2026-05-06 17:53 | 37.41892 | 10.05392 | 17706 ft | 375 kts | 345° |
| 2026-05-06 17:53 | 37.44433 | 10.04585 | 18248 ft | 378 kts | 345° |
| 2026-05-06 17:53 | 37.46993 | 10.03776 | 18778 ft | 381 kts | 346° |
| 2026-05-06 17:54 | 37.49576 | 10.02962 | 19290 ft | 384 kts | 346° |
| 2026-05-06 17:54 | 37.52176 | 10.02141 | 19793 ft | 387 kts | 346° |
| 2026-05-06 17:54 | 37.54798 | 10.01312 | 20278 ft | 390 kts | 346° |
| 2026-05-06 17:54 | 37.57441 | 10.00478 | 20756 ft | 393 kts | 346° |
| 2026-05-06 17:55 | 37.60100 | 9.99633 | 21222 ft | 395 kts | 345° |
| 2026-05-06 17:55 | 37.62779 | 9.98777 | 21677 ft | 398 kts | 345° |
| 2026-05-06 17:55 | 37.65474 | 9.97917 | 22132 ft | 401 kts | 345° |
| 2026-05-06 17:55 | 37.68187 | 9.97054 | 22565 ft | 404 kts | 345° |
| 2026-05-06 17:56 | 37.70919 | 9.96185 | 22990 ft | 406 kts | 345° |
| 2026-05-06 17:56 | 37.73672 | 9.95310 | 23404 ft | 409 kts | 346° |
| 2026-05-06 17:56 | 37.76442 | 9.94432 | 23802 ft | 411 kts | 346° |
| 2026-05-06 17:56 | 37.79225 | 9.93548 | 24197 ft | 414 kts | 346° |
| 2026-05-06 17:57 | 37.82027 | 9.92656 | 24576 ft | 416 kts | 345° |
| 2026-05-06 17:57 | 37.84843 | 9.91754 | 24964 ft | 419 kts | 345° |
| 2026-05-06 17:57 | 37.87676 | 9.90847 | 25337 ft | 421 kts | 345° |
| 2026-05-06 17:57 | 37.90524 | 9.89938 | 25701 ft | 424 kts | 345° |
| 2026-05-06 17:58 | 37.93390 | 9.89023 | 26053 ft | 426 kts | 346° |
| 2026-05-06 17:58 | 37.96271 | 9.88103 | 26401 ft | 428 kts | 345° |
| 2026-05-06 17:58 | 37.99167 | 9.87176 | 26743 ft | 430 kts | 345° |
| 2026-05-06 17:58 | 38.02083 | 9.86241 | 27079 ft | 433 kts | 345° |
| 2026-05-06 17:59 | 38.05010 | 9.85300 | 27403 ft | 435 kts | 345° |
| 2026-05-06 17:59 | 38.07950 | 9.84358 | 27714 ft | 437 kts | 345° |
| 2026-05-06 17:59 | 38.10902 | 9.83413 | 28035 ft | 439 kts | 345° |
| 2026-05-06 17:59 | 38.13874 | 9.82459 | 28337 ft | 441 kts | 345° |
| 2026-05-06 18:00 | 38.16857 | 9.81498 | 28634 ft | 443 kts | 345° |
| 2026-05-06 18:00 | 38.19855 | 9.80530 | 28923 ft | 445 kts | 345° |
| 2026-05-06 18:00 | 38.22876 | 9.79638 | 29188 ft | 447 kts | 351° |
| 2026-05-06 18:00 | 38.25982 | 9.79295 | 29451 ft | 449 kts | 360° |
| 2026-05-06 18:01 | 38.29104 | 9.79600 | 29704 ft | 451 kts | 9° |
| 2026-05-06 18:01 | 38.32197 | 9.80349 | 29955 ft | 453 kts | 11° |
| 2026-05-06 18:01 | 38.35298 | 9.81113 | 30212 ft | 455 kts | 11° |
| 2026-05-06 18:01 | 38.38420 | 9.81879 | 30471 ft | 457 kts | 11° |
| 2026-05-06 18:02 | 38.41547 | 9.82641 | 30730 ft | 459 kts | 11° |
| 2026-05-06 18:02 | 38.44678 | 9.83404 | 31099 ft | 458 kts | 11° |
| 2026-05-06 18:02 | 38.47803 | 9.84169 | 31460 ft | 457 kts | 11° |
| 2026-05-06 18:02 | 38.50924 | 9.84935 | 31820 ft | 456 kts | 11° |
| 2026-05-06 18:03 | 38.54035 | 9.85702 | 32174 ft | 455 kts | 11° |
| 2026-05-06 18:03 | 38.57144 | 9.86467 | 32524 ft | 454 kts | 11° |
| 2026-05-06 18:03 | 38.60248 | 9.87233 | 32868 ft | 454 kts | 11° |
| 2026-05-06 18:03 | 38.63340 | 9.87996 | 33200 ft | 453 kts | 11° |
| 2026-05-06 18:04 | 38.66400 | 9.88749 | 33524 ft | 452 kts | 11° |
| 2026-05-06 18:04 | 38.69488 | 9.89507 | 33844 ft | 452 kts | 11° |
| 2026-05-06 18:04 | 38.72572 | 9.90263 | 34157 ft | 451 kts | 11° |
| 2026-05-06 18:04 | 38.75652 | 9.91019 | 34466 ft | 450 kts | 11° |
| 2026-05-06 18:05 | 38.78729 | 9.91775 | 34763 ft | 450 kts | 11° |
| 2026-05-06 18:05 | 38.81795 | 9.92531 | 35051 ft | 449 kts | 11° |
| 2026-05-06 18:05 | 38.84867 | 9.93250 | 35333 ft | 448 kts | 7° |
| 2026-05-06 18:05 | 38.87970 | 9.93568 | 35596 ft | 448 kts | 3° |
| 2026-05-06 18:06 | 38.91079 | 9.93809 | 35858 ft | 447 kts | 3° |
| 2026-05-06 18:06 | 38.94193 | 9.94054 | 35985 ft | 447 kts | 3° |
| 2026-05-06 18:06 | 39.00365 | 9.94545 | 36009 ft | 443 kts | 3° |
| 2026-05-06 18:07 | 39.06509 | 9.95036 | 36009 ft | 442 kts | 3° |
| 2026-05-06 18:07 | 39.12653 | 9.95526 | 36009 ft | 442 kts | 3° |
| 2026-05-06 18:08 | 39.18798 | 9.96014 | 36009 ft | 442 kts | 3° |
| 2026-05-06 18:08 | 39.24937 | 9.96504 | 36009 ft | 442 kts | 3° |
| 2026-05-06 18:09 | 39.31077 | 9.96991 | 36009 ft | 442 kts | 3° |
| 2026-05-06 18:09 | 39.37217 | 9.97482 | 36009 ft | 442 kts | 3° |
| 2026-05-06 18:10 | 39.43362 | 9.97976 | 36010 ft | 442 kts | 3° |
| 2026-05-06 18:10 | 39.49505 | 9.98473 | 36010 ft | 442 kts | 3° |
| 2026-05-06 18:11 | 39.54653 | 9.98881 | 36013 ft | 442 kts | 3° |
| 2026-05-06 18:11 | 39.61769 | 9.99701 | 36010 ft | 442 kts | 12° |
| 2026-05-06 18:12 | 39.67706 | 10.01820 | 36012 ft | 442 kts | 15° |
| 2026-05-06 18:12 | 39.73633 | 10.04000 | 36014 ft | 443 kts | 15° |
| 2026-05-06 18:13 | 39.79569 | 10.06170 | 36017 ft | 443 kts | 15° |
| 2026-05-06 18:13 | 39.85509 | 10.08335 | 36019 ft | 443 kts | 15° |
| 2026-05-06 18:14 | 39.91452 | 10.10518 | 36020 ft | 443 kts | 15° |
| 2026-05-06 18:14 | 39.97387 | 10.12705 | 36019 ft | 443 kts | 15° |
| 2026-05-06 18:15 | 40.03321 | 10.14886 | 36018 ft | 443 kts | 15° |
| 2026-05-06 18:15 | 40.09249 | 10.17073 | 36017 ft | 443 kts | 15° |
| 2026-05-06 18:16 | 40.15172 | 10.19267 | 36016 ft | 443 kts | 15° |
| 2026-05-06 18:16 | 40.21102 | 10.21465 | 36015 ft | 443 kts | 15° |
| 2026-05-06 18:17 | 40.26028 | 10.23286 | 36015 ft | 442 kts | 15° |
| 2026-05-06 18:17 | 40.31948 | 10.25486 | 36014 ft | 442 kts | 15° |
| 2026-05-06 18:18 | 40.37868 | 10.27691 | 36014 ft | 442 kts | 15° |
| 2026-05-06 18:18 | 40.43795 | 10.29900 | 36013 ft | 442 kts | 15° |
| 2026-05-06 18:19 | 40.49717 | 10.32117 | 36013 ft | 442 kts | 15° |
| 2026-05-06 18:19 | 40.55636 | 10.34336 | 36013 ft | 442 kts | 15° |
| 2026-05-06 18:20 | 40.61556 | 10.36560 | 36013 ft | 442 kts | 15° |
| 2026-05-06 18:20 | 40.67477 | 10.38782 | 36012 ft | 442 kts | 15° |
| 2026-05-06 18:21 | 40.73395 | 10.41014 | 36012 ft | 442 kts | 15° |
| 2026-05-06 18:21 | 40.79311 | 10.43246 | 36012 ft | 442 kts | 15° |
| 2026-05-06 18:22 | 40.85228 | 10.45487 | 36012 ft | 442 kts | 15° |
| 2026-05-06 18:22 | 40.91148 | 10.47730 | 36012 ft | 442 kts | 15° |
| 2026-05-06 18:23 | 40.97067 | 10.49979 | 36016 ft | 442 kts | 16° |
| 2026-05-06 18:23 | 41.02980 | 10.52224 | 36011 ft | 442 kts | 15° |
| 2026-05-06 18:24 | 41.08891 | 10.54473 | 36011 ft | 442 kts | 16° |
| 2026-05-06 18:24 | 41.14802 | 10.56730 | 36012 ft | 442 kts | 16° |
| 2026-05-06 18:25 | 41.20719 | 10.58957 | 36010 ft | 442 kts | 14° |
| 2026-05-06 18:25 | 41.26691 | 10.60895 | 36010 ft | 442 kts | 12° |
| 2026-05-06 18:26 | 41.32691 | 10.62697 | 36010 ft | 442 kts | 12° |
| 2026-05-06 18:26 | 41.38684 | 10.64556 | 36009 ft | 442 kts | 13° |
| 2026-05-06 18:27 | 41.44660 | 10.66474 | 36009 ft | 442 kts | 13° |
| 2026-05-06 18:27 | 41.50638 | 10.68401 | 36235 ft | 442 kts | 13° |
| 2026-05-06 18:28 | 41.53653 | 10.69368 | 36055 ft | 452 kts | 8° |
| 2026-05-06 18:28 | 41.56742 | 10.70354 | 35723 ft | 460 kts | 11° |
| 2026-05-06 18:28 | 41.59840 | 10.71348 | 35919 ft | 453 kts | 13° |
| 2026-05-06 18:28 | 41.62880 | 10.72331 | 36011 ft | 446 kts | 13° |
| 2026-05-06 18:29 | 41.68878 | 10.74278 | 36010 ft | 442 kts | 13° |
| 2026-05-06 18:29 | 41.74853 | 10.76205 | 36012 ft | 442 kts | 13° |
| 2026-05-06 18:30 | 41.80834 | 10.78128 | 36011 ft | 442 kts | 13° |
| 2026-05-06 18:30 | 41.86812 | 10.80062 | 36008 ft | 442 kts | 13° |
| 2026-05-06 18:31 | 41.92781 | 10.82003 | 36007 ft | 442 kts | 13° |
| 2026-05-06 18:31 | 41.98754 | 10.83955 | 36007 ft | 442 kts | 13° |
| 2026-05-06 18:32 | 42.04727 | 10.85903 | 36007 ft | 442 kts | 13° |
| 2026-05-06 18:32 | 42.10704 | 10.87847 | 36009 ft | 442 kts | 13° |
| 2026-05-06 18:33 | 42.16677 | 10.89805 | 36011 ft | 441 kts | 13° |
| 2026-05-06 18:33 | 42.22645 | 10.91758 | 36006 ft | 441 kts | 13° |
| 2026-05-06 18:34 | 42.28616 | 10.93712 | 36005 ft | 441 kts | 13° |
| 2026-05-06 18:34 | 42.34583 | 10.95683 | 36005 ft | 441 kts | 13° |
| 2026-05-06 18:35 | 42.40547 | 10.97654 | 36005 ft | 441 kts | 13° |
| 2026-05-06 18:35 | 42.46520 | 10.99626 | 36008 ft | 441 kts | 13° |
| 2026-05-06 18:36 | 42.52486 | 11.01594 | 36004 ft | 441 kts | 13° |
| 2026-05-06 18:36 | 42.58420 | 11.03556 | 36009 ft | 441 kts | 13° |
| 2026-05-06 18:37 | 42.64425 | 11.05555 | 36004 ft | 441 kts | 13° |
| 2026-05-06 18:37 | 42.70386 | 11.07549 | 36003 ft | 441 kts | 13° |
| 2026-05-06 18:38 | 42.76348 | 11.09542 | 36008 ft | 441 kts | 13° |
| 2026-05-06 18:38 | 42.82316 | 11.11523 | 36003 ft | 441 kts | 13° |
| 2026-05-06 18:39 | 42.88281 | 11.13520 | 36002 ft | 441 kts | 13° |
| 2026-05-06 18:40 | 42.97192 | 11.16517 | 36001 ft | 442 kts | 13° |
| 2026-05-06 18:40 | 43.03167 | 11.18523 | 35994 ft | 442 kts | 13° |
| 2026-05-06 18:41 | 43.09146 | 11.20545 | 35998 ft | 443 kts | 13° |
| 2026-05-06 18:41 | 43.15131 | 11.22571 | 35997 ft | 443 kts | 13° |
| 2026-05-06 18:42 | 43.21121 | 11.24595 | 35999 ft | 443 kts | 13° |
| 2026-05-06 18:42 | 43.27112 | 11.26626 | 36007 ft | 443 kts | 14° |
| 2026-05-06 18:43 | 43.33096 | 11.28671 | 36006 ft | 443 kts | 14° |
| 2026-05-06 18:43 | 43.39074 | 11.30712 | 36004 ft | 443 kts | 13° |
| 2026-05-06 18:44 | 43.45060 | 11.32752 | 35998 ft | 443 kts | 13° |
| 2026-05-06 18:44 | 43.51045 | 11.34796 | 36001 ft | 443 kts | 14° |
| 2026-05-06 18:45 | 43.57038 | 11.36832 | 35995 ft | 444 kts | 13° |
| 2026-05-06 18:45 | 43.63075 | 11.38685 | 35995 ft | 444 kts | 12° |
| 2026-05-06 18:46 | 43.69123 | 11.40441 | 35999 ft | 444 kts | 12° |
| 2026-05-06 18:46 | 43.75161 | 11.42241 | 35998 ft | 444 kts | 12° |
| 2026-05-06 18:47 | 43.81210 | 11.44084 | 35988 ft | 445 kts | 12° |
| 2026-05-06 18:47 | 43.87270 | 11.45946 | 35984 ft | 447 kts | 12° |
| 2026-05-06 18:48 | 43.93347 | 11.47818 | 35988 ft | 448 kts | 12° |
| 2026-05-06 18:48 | 43.99434 | 11.49676 | 35995 ft | 448 kts | 12° |
| 2026-05-06 18:49 | 44.05526 | 11.51541 | 35984 ft | 449 kts | 12° |
| 2026-05-06 18:49 | 44.11631 | 11.53427 | 35990 ft | 450 kts | 12° |
| 2026-05-06 18:50 | 44.17744 | 11.55316 | 35992 ft | 450 kts | 12° |
| 2026-05-06 18:50 | 44.23862 | 11.57205 | 35840 ft | 452 kts | 12° |
| 2026-05-06 18:50 | 44.26954 | 11.58158 | 35065 ft | 456 kts | 12° |
| 2026-05-06 18:51 | 44.30049 | 11.59114 | 34493 ft | 454 kts | 12° |
| 2026-05-06 18:51 | 44.33086 | 11.60050 | 33983 ft | 451 kts | 12° |
| 2026-05-06 18:51 | 44.36144 | 11.60992 | 33490 ft | 448 kts | 12° |
| 2026-05-06 18:51 | 44.39214 | 11.61944 | 32983 ft | 444 kts | 12° |
| 2026-05-06 18:52 | 44.42217 | 11.62885 | 32505 ft | 440 kts | 12° |
| 2026-05-06 18:52 | 44.45194 | 11.63821 | 32018 ft | 437 kts | 12° |
| 2026-05-06 18:52 | 44.48149 | 11.64747 | 31530 ft | 433 kts | 12° |
| 2026-05-06 18:52 | 44.51076 | 11.65663 | 31043 ft | 430 kts | 12° |
| 2026-05-06 18:53 | 44.53969 | 11.66651 | 30550 ft | 426 kts | 18° |
| 2026-05-06 18:53 | 44.56662 | 11.68338 | 30066 ft | 423 kts | 31° |
| 2026-05-06 18:53 | 44.59104 | 11.70603 | 29544 ft | 420 kts | 34° |
| 2026-05-06 18:53 | 44.61516 | 11.72892 | 29066 ft | 417 kts | 34° |
| 2026-05-06 18:54 | 44.63105 | 11.74396 | 28741 ft | 415 kts | 34° |
| 2026-05-06 18:54 | 44.65492 | 11.76649 | 28255 ft | 412 kts | 33° |
| 2026-05-06 18:54 | 44.67959 | 11.78640 | 27767 ft | 408 kts | 21° |
| 2026-05-06 18:54 | 44.70625 | 11.79927 | 27270 ft | 404 kts | 18° |
| 2026-05-06 18:55 | 44.73293 | 11.81151 | 26774 ft | 402 kts | 18° |
| 2026-05-06 18:55 | 44.75944 | 11.82358 | 26287 ft | 399 kts | 18° |
| 2026-05-06 18:55 | 44.78572 | 11.83552 | 25811 ft | 396 kts | 18° |
| 2026-05-06 18:55 | 44.81179 | 11.84735 | 25319 ft | 393 kts | 18° |
| 2026-05-06 18:56 | 44.83769 | 11.85911 | 24838 ft | 390 kts | 18° |
| 2026-05-06 18:56 | 44.86342 | 11.87084 | 24356 ft | 387 kts | 18° |
| 2026-05-06 18:56 | 44.88892 | 11.88251 | 23877 ft | 384 kts | 18° |
| 2026-05-06 18:56 | 44.91423 | 11.89406 | 23356 ft | 382 kts | 18° |
| 2026-05-06 18:57 | 44.94008 | 11.90587 | 22087 ft | 399 kts | 18° |
| 2026-05-06 18:57 | 44.96710 | 11.91825 | 20648 ft | 418 kts | 18° |
| 2026-05-06 18:57 | 44.99541 | 11.93127 | 19153 ft | 436 kts | 18° |
| 2026-05-06 18:57 | 45.02482 | 11.94481 | 17671 ft | 452 kts | 18° |
| 2026-05-06 18:58 | 45.05458 | 11.95848 | 17050 ft | 445 kts | 18° |
| 2026-05-06 18:58 | 45.08376 | 11.97189 | 16394 ft | 438 kts | 18° |
| 2026-05-06 18:58 | 45.11271 | 11.98519 | 15685 ft | 434 kts | 18° |
| 2026-05-06 18:58 | 45.14122 | 11.99831 | 14964 ft | 429 kts | 18° |
| 2026-05-06 18:59 | 45.16942 | 12.01135 | 14243 ft | 425 kts | 18° |
| 2026-05-06 18:59 | 45.19735 | 12.02429 | 13514 ft | 420 kts | 18° |
| 2026-05-06 18:59 | 45.22528 | 12.03571 | 12787 ft | 415 kts | 9° |
| 2026-05-06 18:59 | 45.25386 | 12.03628 | 12085 ft | 410 kts | 351° |
| 2026-05-06 19:00 | 45.28071 | 12.02411 | 11366 ft | 404 kts | 332° |
| 2026-05-06 19:00 | 45.30318 | 12.00072 | 10631 ft | 400 kts | 316° |
| 2026-05-06 19:00 | 45.32281 | 11.97296 | 9877 ft | 397 kts | 314° |
| 2026-05-06 19:00 | 45.34215 | 11.94520 | 9155 ft | 393 kts | 314° |
| 2026-05-06 19:01 | 45.36127 | 11.91769 | 8455 ft | 389 kts | 314° |
| 2026-05-06 19:01 | 45.38022 | 11.89039 | 7755 ft | 386 kts | 314° |
| 2026-05-06 19:01 | 45.39887 | 11.86324 | 7062 ft | 382 kts | 312° |
| 2026-05-06 19:01 | 45.41314 | 11.83187 | 6367 ft | 377 kts | 292° |
| 2026-05-06 19:02 | 45.41888 | 11.79586 | 5683 ft | 373 kts | 272° |
| 2026-05-06 19:02 | 45.41548 | 11.75972 | 4986 ft | 369 kts | 252° |
| 2026-05-06 19:02 | 45.40343 | 11.72795 | 4319 ft | 365 kts | 230° |
| 2026-05-06 19:02 | 45.38433 | 11.70568 | 4116 ft | 348 kts | 208° |
| 2026-05-06 19:03 | 45.36198 | 11.69608 | 4113 ft | 327 kts | 185° |
| 2026-05-06 19:03 | 45.34022 | 11.69963 | 4128 ft | 308 kts | 160° |
| 2026-05-06 19:03 | 45.32256 | 11.71488 | 4119 ft | 291 kts | 135° |
| 2026-05-06 19:03 | 45.31163 | 11.73777 | 4118 ft | 273 kts | 116° |
| 2026-05-06 19:04 | 45.30373 | 11.76152 | 4118 ft | 258 kts | 114° |
| 2026-05-06 19:04 | 45.29652 | 11.78409 | 4117 ft | 243 kts | 114° |
| 2026-05-06 19:04 | 45.28971 | 11.80553 | 4129 ft | 234 kts | 114° |
| 2026-05-06 19:04 | 45.28328 | 11.82583 | 4134 ft | 219 kts | 114° |
| 2026-05-06 19:05 | 45.27711 | 11.84530 | 4116 ft | 215 kts | 114° |
| 2026-05-06 19:05 | 45.27099 | 11.86462 | 4116 ft | 214 kts | 114° |
| 2026-05-06 19:05 | 45.26490 | 11.88387 | 4120 ft | 213 kts | 114° |
| 2026-05-06 19:05 | 45.25880 | 11.90311 | 4126 ft | 213 kts | 114° |
| 2026-05-06 19:06 | 45.25288 | 11.92237 | 4115 ft | 213 kts | 109° |
| 2026-05-06 19:06 | 45.25205 | 11.94313 | 4078 ft | 214 kts | 81° |
| 2026-05-06 19:06 | 45.25536 | 11.96409 | 3632 ft | 220 kts | 75° |
| 2026-05-06 19:06 | 45.25939 | 11.98530 | 3200 ft | 224 kts | 74° |
| 2026-05-06 19:07 | 45.26337 | 12.00585 | 3123 ft | 205 kts | 74° |
| 2026-05-06 19:07 | 45.26696 | 12.02440 | 3109 ft | 188 kts | 74° |
| 2026-05-06 19:07 | 45.27066 | 12.04343 | 3128 ft | 207 kts | 74° |
| 2026-05-06 19:07 | 45.27454 | 12.06336 | 3125 ft | 211 kts | 74° |
| 2026-05-06 19:08 | 45.27843 | 12.08340 | 3122 ft | 211 kts | 74° |
| 2026-05-06 19:08 | 45.28230 | 12.10351 | 3124 ft | 211 kts | 75° |
| 2026-05-06 19:08 | 45.28619 | 12.12360 | 3124 ft | 211 kts | 74° |
| 2026-05-06 19:08 | 45.29231 | 12.14234 | 3119 ft | 211 kts | 48° |
| 2026-05-06 19:09 | 45.30456 | 12.15325 | 3125 ft | 210 kts | 19° |
| 2026-05-06 19:09 | 45.31853 | 12.15927 | 3126 ft | 210 kts | 15° |
| 2026-05-06 19:09 | 45.33261 | 12.16472 | 3123 ft | 210 kts | 14° |
| 2026-05-06 19:09 | 45.34668 | 12.17011 | 3122 ft | 209 kts | 14° |
| 2026-05-06 19:10 | 45.36022 | 12.17528 | 3118 ft | 196 kts | 14° |
| 2026-05-06 19:10 | 45.37256 | 12.18233 | 3082 ft | 188 kts | 35° |
| 2026-05-06 19:10 | 45.38216 | 12.19417 | 2912 ft | 178 kts | 41° |
| 2026-05-06 19:10 | 45.39120 | 12.20579 | 2701 ft | 173 kts | 41° |
| 2026-05-06 19:11 | 45.40001 | 12.21709 | 2482 ft | 169 kts | 41° |
| 2026-05-06 19:11 | 45.40870 | 12.22821 | 2261 ft | 168 kts | 41° |
| 2026-05-06 19:11 | 45.41736 | 12.23929 | 2048 ft | 167 kts | 41° |
| 2026-05-06 19:11 | 45.42597 | 12.25031 | 1821 ft | 166 kts | 41° |
| 2026-05-06 19:12 | 45.43455 | 12.26129 | 1613 ft | 166 kts | 41° |
| 2026-05-06 19:12 | 45.44308 | 12.27223 | 1381 ft | 165 kts | 41° |
| 2026-05-06 19:12 | 45.45159 | 12.28314 | 1157 ft | 164 kts | 41° |
| 2026-05-06 19:12 | 45.45988 | 12.29376 | 964 ft | 155 kts | 41° |
| 2026-05-06 19:13 | 45.46782 | 12.30395 | 750 ft | 152 kts | 41° |
| 2026-05-06 19:13 | 45.47565 | 12.31398 | 547 ft | 151 kts | 41° |
| 2026-05-06 19:13 | 45.48342 | 12.32397 | 346 ft | 150 kts | 41° |
| 2026-05-06 19:13 | 45.49113 | 12.33386 | 146 ft | 149 kts | 41° |
| 2026-05-06 19:14 | 45.49875 | 12.34365 | 13 ft | 136 kts | 42° |
| 2026-05-06 19:14 | 45.50308 | 12.34923 | 15 ft | 41 kts | 42° |
| 2026-05-06 19:14 | 45.50458 | 12.35045 | 13 ft | 13 kts | 15° |
| 2026-05-06 19:14 | 45.50491 | 12.35058 | 14 ft | 1 kts | 14° |
| 2026-05-06 19:15 | 45.50518 | 12.35067 | 14 ft | 4 kts | 13° |
| 2026-05-06 19:15 | 45.50538 | 12.35073 | 15 ft | 2 kts | 11° |
| 2026-05-06 19:15 | 45.50557 | 12.35075 | 15 ft | 8 kts | 359° |
| 2026-05-06 19:15 | 45.50614 | 12.34960 | 15 ft | 15 kts | 274° |
| 2026-05-06 19:16 | 45.50615 | 12.34942 | 15 ft | 3 kts | 272° |
| 2026-05-06 19:16 | 45.50615 | 12.34948 | 15 ft | 2 kts | 272° |
| 2026-05-06 19:16 | 45.50615 | 12.34944 | 15 ft | 0 kts | 271° |
| 2026-05-06 19:17 | 45.50616 | 12.34880 | 15 ft | 16 kts | 271° |
| 2026-05-06 19:17 | 45.50605 | 12.34660 | 16 ft | 24 kts | 267° |
| 2026-05-06 19:17 | 45.50588 | 12.34431 | 16 ft | 22 kts | 240° |
| 2026-05-06 19:18 | 45.50542 | 12.34363 | 16 ft | 8 kts | 214° |
| 2026-05-06 19:18 | 45.50500 | 12.34309 | 16 ft | 11 kts | 240° |
| 2026-05-06 19:18 | 45.50492 | 12.34207 | 16 ft | 0 kts | 271° |